Blue Dog Lake, South Dakota
Current Conditions -  °F | °C
As of 1:53 AM on Saturday 25 Oct 2014 (Local Time) from KATY Reporting Station
Clear Clear  
Wind Chill: 55°   Ceiling: Unl
Heat Index: 55°   Visibility: 10mi
Dew Point: 38°   Wind: 9mph
Humidity: 53%   Direction: 340°NNW
Pressure: 30.05"   Gusts: NA
Location:  45.3948°N, 97.2932°W
Report Text: KATY 250653Z AUTO 34008KT 10SM CLR 13/03 A3005 RMK AO2 SLP172 T01280033 $
Loading
Personal Weather Stations






























Interactive Weather Map
Tropical Storm Tracking
New forecast layout! Learn more

10-Day Weather Forecast

Advertisements
Track Severe Weather on mobile